aviador You're here:

KMCW Decoded Metar

MASON CITY in IA, USA
Report Time2018-02-17 22:53:00
UTC Time2018-02-17 23:38:09
Flight Rules vfr VFR
Wind270° at 12 kt
W.Decomp.*RWY 30: 9.8 kt HW 6.9 kt LCW
RWY 18: 1.0 kt HW 12.0 kt RCW
W.Rank270° ranks 14
Current wind is above 270° avg. (9.1)
Visibility9999 m
Phenomena:N/A
Clouds:N/A
Expected CloudBase > 1,200 ft AGL from Temp-Dew spread
CeilingNone
Temp-1°C (ISA -14)
Dew Point-4°C (80% RH)
AAT-7.8°C
QNH1016 hPa
Density Alt-486 ft
Elevation1,211 ft
Report Wrong Elevation
Raw Report
KMCW 172253Z AUTO 27012KT 10SM CLR M01/M04 A3001 RMK AO2 SLP175
T10111039=

Extra information for KMCW:More info

Metar Taf Metar & Taf Last 4 Metars F.Rules Stats Wind Profile Meteogram Temp Stats Airport Information Weather charts Add Link Nearby VenuesMetar ALERT Operation Metar Decoded Social comments

AIRNAV info for KMCW